Accueil
METAR-TAF:

METAR-TAF

Aéroports :

Aéroport Châlons-Vatry

Châlons-en-Champagne, France

latitude: 48-46-34N, longitude: 004-11-04E, altitude: 179 m

Observation

Le bulletin a été fait il y a 34 minutes, à 17:30 UTC
Vent 9 kt de sud/sud-est
Température 8°C
Humidité 87%
Pression 1015 hPa
Visibilité 10 km ou plus
pluie faible

METAR: LFOK 271730Z AUTO 16009KT 9999 -RA FEW021/// BKN045/// BKN056/// ///CB 08/06 Q1015 BECMG NSC

Heure: 19:04 (18:04 UTC)

Prévision

Le bulletin a été fait il y a 7 heures et 4 minutes, à 11:00 UTC
Prévision valable du 27 à 12 UTC au 28 à 12 UTC
Vent 13 kt de sud
Visibilité 10 km ou plus
pas de nuages en-dessous de 1500 mètres et pas de cumulonimbus.
Temporairement
du 28 à 04 UTC au 28 à 11 UTC
Visibilité: 4000 m
Nuages fragmentés à une hauteur de 400 ft
pluie

TAF: LFOK 271100Z 2712/2812 17013KT CAVOK TEMPO 2804/2811 4000 RA BKN004

Observations et prévisions météorologiques de plus de 4000 aéroports (messages METAR et TAF).

Les stations disponibles sont représentées par des disques jaunes et rouges sur la carte.

Passer la souris dessus pour voir le nom de la station.

Cliquer dessus pour voir les observations et prévisions météorologiques.

Pour changer de carte: cliquez sur les boutons verts avec une croix noire pour zoomer, sur le bouton vert avec un tiret pour effectuer un zoom arrière, ou sur les flèches vertes pour les cartes adjacentes.


METAR-TAF: